Time;durP1;ratioP1;P1;durP2;ratioP2;P2;SDS_P1;SDS_P2;PMS_P1;PMS_P2;Temp;Humidity;BMP_temperature;BMP_pressure;BME280_temperature;BME280_humidity;BME280_pressure;Samples;Min_cycle;Max_cycle;Signal;HPM_P1;HPM_P2
2023/06/18 00:01:28;;;;;;;5.35;3.70;;;21.90;71.60;;;;;;4837381;29;20048;-67
2023/06/18 00:03:54;;;;;;;5.53;3.67;;;21.90;71.40;;;;;;4834358;29;20041;-67
2023/06/18 00:06:21;;;;;;;5.90;3.70;;;21.90;71.40;;;;;;4840429;29;20048;-67
2023/06/18 00:08:47;;;;;;;4.20;3.10;;;21.90;71.10;;;;;;4847258;29;20033;-68
2023/06/18 00:11:14;;;;;;;4.45;3.33;;;21.90;71.00;;;;;;4842911;29;20037;-67
2023/06/18 00:13:40;;;;;;;4.75;3.70;;;21.90;70.90;;;;;;4832620;29;20048;-68
2023/06/18 00:16:06;;;;;;;6.55;4.00;;;21.90;70.80;;;;;;4816560;29;20048;-67
2023/06/18 00:18:33;;;;;;;3.45;2.67;;;21.80;70.60;;;;;;4821486;29;20500;-67
2023/06/18 00:21:00;;;;;;;3.28;2.65;;;21.80;70.60;;;;;;4837464;29;20045;-67
2023/06/18 00:23:26;;;;;;;3.25;2.22;;;21.80;70.60;;;;;;4834576;29;20033;-67
2023/06/18 00:25:53;;;;;;;5.82;3.95;;;21.70;70.50;;;;;;4837259;29;20041;-67
2023/06/18 00:28:19;;;;;;;5.80;3.83;;;21.70;70.60;;;;;;4848665;29;20041;-67
2023/06/18 00:30:45;;;;;;;4.55;3.53;;;21.70;70.60;;;;;;4826043;29;20040;-67
2023/06/18 00:33:12;;;;;;;4.35;2.55;;;21.70;70.60;;;;;;4836997;29;20041;-66
2023/06/18 00:35:39;;;;;;;4.28;2.92;;;21.60;70.40;;;;;;4815969;29;20397;-67
2023/06/18 00:38:05;;;;;;;4.43;2.60;;;21.60;70.40;;;;;;4834171;29;20040;-67
2023/06/18 00:40:33;;;;;;;5.82;3.55;;;21.60;70.30;;;;;;4820754;29;20041;-67
2023/06/18 00:42:59;;;;;;;4.78;3.60;;;21.60;70.20;;;;;;4837892;29;20049;-67
2023/06/18 00:45:28;;;;;;;3.97;2.88;;;21.60;70.30;;;;;;4837805;29;20539;-67
2023/06/18 00:47:55;;;;;;;4.32;3.20;;;21.70;70.30;;;;;;4845522;29;20033;-67
2023/06/18 00:50:26;;;;;;;4.30;3.33;;;21.60;70.20;;;;;;4838959;29;20041;-67
2023/06/18 00:52:59;;;;;;;3.70;3.00;;;21.60;70.30;;;;;;4836777;29;20633;-67
2023/06/18 00:55:29;;;;;;;5.20;4.05;;;21.60;70.20;;;;;;4828211;29;20057;-67
2023/06/18 00:58:00;;;;;;;4.80;3.20;;;21.60;70.40;;;;;;4835096;29;20033;-67
2023/06/18 01:00:28;;;;;;;4.43;3.08;;;21.50;70.30;;;;;;4819835;29;20049;-67
2023/06/18 01:02:56;;;;;;;5.78;3.17;;;21.40;70.20;;;;;;4840942;29;20052;-67
2023/06/18 01:05:23;;;;;;;4.35;2.85;;;21.40;70.30;;;;;;4822451;29;20045;-67
2023/06/18 01:07:49;;;;;;;4.45;2.90;;;21.40;70.40;;;;;;4841496;29;20337;-68
2023/06/18 01:10:17;;;;;;;6.88;2.50;;;21.40;70.50;;;;;;4836067;29;20582;-67
2023/06/18 01:12:48;;;;;;;3.40;2.72;;;21.30;70.50;;;;;;4832879;29;20053;-67
2023/06/18 01:15:20;;;;;;;3.05;2.58;;;21.30;70.60;;;;;;4828580;29;20041;-67
2023/06/18 01:17:48;;;;;;;3.42;2.70;;;21.20;70.50;;;;;;4820087;29;20060;-67
2023/06/18 01:20:17;;;;;;;3.47;2.63;;;21.20;70.80;;;;;;4839561;29;20048;-67
2023/06/18 01:22:57;;;;;;;6.97;3.67;;;21.20;71.00;;;;;;4829676;29;20061;-67
2023/06/18 01:25:29;;;;;;;4.60;3.10;;;21.10;71.10;;;;;;4820275;29;20289;-67
2023/06/18 01:27:56;;;;;;;4.80;3.65;;;21.10;71.10;;;;;;4836891;29;20034;-67
2023/06/18 01:30:23;;;;;;;4.10;2.83;;;21.00;71.30;;;;;;4805181;29;20040;-67
2023/06/18 01:32:49;;;;;;;3.67;2.70;;;21.00;71.40;;;;;;4823319;29;20610;-67
2023/06/18 01:35:16;;;;;;;6.60;3.15;;;20.90;71.50;;;;;;4828638;29;20131;-67
2023/06/18 01:38:01;;;;;;;4.93;3.10;;;20.90;71.60;;;;;;4834766;29;20571;-67
2023/06/18 01:40:43;;;;;;;3.70;3.13;;;20.90;71.90;;;;;;4845620;29;20040;-67
2023/06/18 01:43:23;;;;;;;4.43;2.80;;;20.80;71.80;;;;;;4843887;29;20033;-67
2023/06/18 01:45:55;;;;;;;5.00;3.40;;;20.80;71.90;;;;;;4830810;29;20029;-67
2023/06/18 01:48:24;;;;;;;7.30;3.47;;;20.80;72.10;;;;;;4820189;29;20052;-67
2023/06/18 01:50:52;;;;;;;4.57;3.08;;;20.70;72.40;;;;;;4818484;29;20290;-67
2023/06/18 01:53:23;;;;;;;4.80;3.05;;;20.70;72.60;;;;;;4833270;29;20056;-67
2023/06/18 01:55:52;;;;;;;5.53;3.83;;;20.70;72.60;;;;;;4829955;29;20049;-67
2023/06/18 01:58:21;;;;;;;4.93;3.38;;;20.70;72.90;;;;;;4840975;29;20040;-67
2023/06/18 02:00:48;;;;;;;4.75;3.17;;;20.60;73.50;;;;;;4844757;29;20825;-67
2023/06/18 02:03:14;;;;;;;3.35;2.75;;;20.60;73.00;;;;;;4840250;29;20500;-67
2023/06/18 02:05:41;;;;;;;6.88;4.03;;;20.50;73.00;;;;;;4828071;29;20057;-66
2023/06/18 02:08:07;;;;;;;4.88;3.22;;;20.50;73.50;;;;;;4834908;29;20060;-67
2023/06/18 02:10:33;;;;;;;5.35;3.97;;;20.50;73.70;;;;;;4834537;29;20129;-67
2023/06/18 02:13:00;;;;;;;5.38;2.95;;;20.40;73.90;;;;;;4835786;29;21224;-67
2023/06/18 02:15:26;;;;;;;4.85;3.20;;;20.30;74.10;;;;;;4812817;29;21879;-66
2023/06/18 02:17:53;;;;;;;3.88;3.05;;;20.30;74.10;;;;;;4844701;29;20044;-67
2023/06/18 02:20:21;;;;;;;4.78;3.30;;;20.30;74.30;;;;;;4844687;29;20036;-67
2023/06/18 02:22:47;;;;;;;6.63;3.60;;;20.20;74.50;;;;;;4836770;29;20056;-67
2023/06/18 02:25:13;;;;;;;3.92;3.35;;;20.20;74.50;;;;;;4828639;29;20053;-67
2023/06/18 02:27:40;;;;;;;5.82;3.72;;;20.20;74.60;;;;;;4833377;29;20049;-66
2023/06/18 02:30:06;;;;;;;3.63;2.97;;;20.10;74.90;;;;;;4832562;29;20052;-67
2023/06/18 02:32:36;;;;;;;4.55;3.20;;;20.00;75.00;;;;;;4834156;29;21407;-67
2023/06/18 02:35:04;;;;;;;3.63;2.90;;;20.00;75.10;;;;;;4814510;29;20056;-67
2023/06/18 02:37:31;;;;;;;2.38;2.17;;;20.00;75.20;;;;;;4813565;29;20048;-67
2023/06/18 02:39:57;;;;;;;5.32;3.55;;;19.90;75.30;;;;;;4843741;29;20033;-66
2023/06/18 02:42:24;;;;;;;5.80;3.50;;;19.90;75.50;;;;;;4832849;29;20030;-67
2023/06/18 02:44:50;;;;;;;7.10;4.43;;;19.80;75.60;;;;;;4824584;29;20324;-67
2023/06/18 02:47:16;;;;;;;4.00;3.60;;;19.80;76.00;;;;;;4818558;29;20067;-66
2023/06/18 02:49:43;;;;;;;5.45;3.38;;;19.80;76.10;;;;;;4805226;29;20648;-67
2023/06/18 02:52:09;;;;;;;5.10;3.92;;;19.70;76.20;;;;;;4820945;29;20389;-67
2023/06/18 02:54:35;;;;;;;5.20;4.10;;;19.70;76.50;;;;;;4830866;29;20049;-67
2023/06/18 02:57:02;;;;;;;4.70;3.53;;;19.70;76.80;;;;;;4814279;29;20033;-67
2023/06/18 02:59:28;;;;;;;5.65;4.75;;;19.60;77.00;;;;;;4830281;29;20067;-66
2023/06/18 03:01:56;;;;;;;6.05;3.63;;;19.60;77.40;;;;;;4823922;29;20052;-67
2023/06/18 03:04:22;;;;;;;4.68;4.00;;;19.60;77.40;;;;;;4813854;29;20041;-67
2023/06/18 03:06:49;;;;;;;4.45;3.22;;;19.50;77.40;;;;;;4820046;29;20044;-67
2023/06/18 03:09:16;;;;;;;4.43;3.58;;;19.50;77.30;;;;;;4820972;29;20045;-67
2023/06/18 03:11:42;;;;;;;3.63;3.30;;;19.50;77.50;;;;;;4834174;29;20033;-67
2023/06/18 03:14:10;;;;;;;5.93;4.03;;;19.40;77.70;;;;;;4819783;29;20029;-67
2023/06/18 03:16:36;;;;;;;5.40;4.70;;;19.40;77.90;;;;;;4812766;29;20037;-67
2023/06/18 03:19:03;;;;;;;5.10;3.95;;;19.40;78.30;;;;;;4842976;29;20048;-67
2023/06/18 03:21:31;;;;;;;4.05;3.60;;;19.30;78.40;;;;;;4836004;29;20040;-67
2023/06/18 03:24:00;;;;;;;4.63;4.20;;;19.30;78.60;;;;;;4818846;29;20037;-67
2023/06/18 03:26:26;;;;;;;6.07;3.92;;;19.30;78.60;;;;;;4830302;29;20409;-67
2023/06/18 03:28:52;;;;;;;6.25;4.45;;;19.20;78.80;;;;;;4819553;29;20060;-67
2023/06/18 03:31:21;;;;;;;5.20;3.55;;;19.20;79.20;;;;;;4819896;29;20057;-66
2023/06/18 03:33:49;;;;;;;5.03;4.03;;;19.20;79.20;;;;;;4810525;29;20037;-67
2023/06/18 03:36:17;;;;;;;5.18;4.05;;;19.20;79.30;;;;;;4842529;29;20488;-67
2023/06/18 03:38:45;;;;;;;5.45;4.20;;;19.20;79.50;;;;;;4840489;29;20041;-67
2023/06/18 03:41:13;;;;;;;5.30;4.43;;;19.10;79.70;;;;;;4821853;29;20080;-67
2023/06/18 03:43:39;;;;;;;5.60;4.45;;;19.10;80.10;;;;;;4831971;29;20051;-67
2023/06/18 03:46:06;;;;;;;5.20;4.55;;;19.10;80.10;;;;;;4830173;29;20052;-67
2023/06/18 03:48:33;;;;;;;9.25;6.95;;;19.10;80.40;;;;;;4834067;29;20045;-66
2023/06/18 03:50:59;;;;;;;8.23;6.25;;;19.10;80.70;;;;;;4839792;29;20045;-67
2023/06/18 03:53:28;;;;;;;8.10;6.15;;;19.10;80.90;;;;;;4842405;29;20053;-66
2023/06/18 03:55:55;;;;;;;7.35;5.50;;;19.10;81.00;;;;;;4838899;29;21221;-67
2023/06/18 03:58:22;;;;;;;5.53;4.88;;;19.10;81.00;;;;;;4804604;29;20041;-67
2023/06/18 04:00:49;;;;;;;6.75;5.20;;;19.20;81.20;;;;;;4804592;29;20049;-66
2023/06/18 04:03:16;;;;;;;6.00;4.85;;;19.20;81.20;;;;;;4830575;29;20040;-67
2023/06/18 04:05:42;;;;;;;9.02;5.20;;;19.20;81.30;;;;;;4828732;29;20380;-67
2023/06/18 04:08:09;;;;;;;6.03;5.43;;;19.30;81.40;;;;;;4818399;29;20515;-67
2023/06/18 04:10:35;;;;;;;5.47;4.28;;;19.30;81.50;;;;;;4838515;29;20029;-67
2023/06/18 04:13:02;;;;;;;7.10;4.90;;;19.30;81.40;;;;;;4829132;29;20036;-67
2023/06/18 04:15:30;;;;;;;6.15;5.25;;;19.30;81.40;;;;;;4832708;29;20037;-66
2023/06/18 04:17:57;;;;;;;6.60;5.05;;;19.40;81.60;;;;;;4819569;29;20037;-67
2023/06/18 04:20:24;;;;;;;8.98;6.05;;;19.40;82.00;;;;;;4834288;29;20025;-67
2023/06/18 04:22:50;;;;;;;10.35;7.00;;;19.40;81.90;;;;;;4817271;29;20045;-66
2023/06/18 04:25:18;;;;;;;8.52;6.05;;;19.50;82.00;;;;;;4827382;29;20040;-67
2023/06/18 04:27:47;;;;;;;9.52;6.10;;;19.50;81.90;;;;;;4820798;29;21378;-67
2023/06/18 04:30:14;;;;;;;7.13;5.85;;;19.60;81.90;;;;;;4843653;29;20353;-67
2023/06/18 04:32:41;;;;;;;7.82;5.97;;;19.70;81.90;;;;;;4844422;29;20368;-67
2023/06/18 04:35:08;;;;;;;5.90;5.40;;;19.80;81.90;;;;;;4814735;29;20041;-67
2023/06/18 04:37:36;;;;;;;7.18;6.13;;;19.90;81.70;;;;;;4817748;29;21186;-67
2023/06/18 04:40:07;;;;;;;8.65;7.05;;;20.00;81.70;;;;;;4804309;29;20037;-67
2023/06/18 04:42:35;;;;;;;5.65;5.05;;;20.10;81.70;;;;;;4833234;29;21020;-67
2023/06/18 04:45:04;;;;;;;6.85;4.97;;;20.20;81.60;;;;;;4825808;29;20021;-67
2023/06/18 04:47:32;;;;;;;5.78;5.00;;;20.20;81.40;;;;;;4839739;29;21558;-67
2023/06/18 04:49:59;;;;;;;6.88;5.45;;;20.30;81.30;;;;;;4830165;29;20040;-67
2023/06/18 04:52:25;;;;;;;6.55;5.30;;;20.40;81.30;;;;;;4825486;29;20523;-68
2023/06/18 04:54:52;;;;;;;6.45;5.45;;;20.40;81.10;;;;;;4811650;29;20496;-67
2023/06/18 04:57:19;;;;;;;6.60;5.90;;;20.50;81.10;;;;;;4850640;29;20040;-67
2023/06/18 04:59:46;;;;;;;7.07;5.85;;;20.50;81.10;;;;;;4832647;29;20052;-67
2023/06/18 05:02:17;;;;;;;9.93;6.25;;;20.50;81.10;;;;;;4818090;29;20519;-67
2023/06/18 05:04:44;;;;;;;7.47;6.00;;;20.60;81.10;;;;;;4828477;29;20037;-67
2023/06/18 05:07:10;;;;;;;5.65;4.93;;;20.60;80.90;;;;;;4828222;29;20927;-67
2023/06/18 05:09:37;;;;;;;5.95;5.15;;;20.60;80.90;;;;;;4828972;29;20029;-67
2023/06/18 05:12:05;;;;;;;5.50;4.65;;;20.70;80.90;;;;;;4822728;29;20386;-67
2023/06/18 05:14:33;;;;;;;6.53;5.82;;;20.70;81.00;;;;;;4813129;29;20323;-67
2023/06/18 05:16:59;;;;;;;6.32;5.05;;;20.70;81.30;;;;;;4833560;29;20048;-67
2023/06/18 05:19:26;;;;;;;6.50;5.65;;;20.80;80.90;;;;;;4832226;29;20838;-66
2023/06/18 05:21:52;;;;;;;6.10;5.07;;;20.80;80.80;;;;;;4834703;29;20374;-67
2023/06/18 05:24:22;;;;;;;6.97;5.32;;;20.80;80.80;;;;;;4830802;29;20362;-67
2023/06/18 05:26:49;;;;;;;6.18;5.57;;;20.70;80.90;;;;;;4828916;29;20041;-67
2023/06/18 05:29:16;;;;;;;6.60;5.40;;;20.70;80.90;;;;;;4828124;29;20045;-67
2023/06/18 05:31:44;;;;;;;7.35;5.93;;;20.70;80.90;;;;;;4820468;29;20756;-67
2023/06/18 05:34:18;;;;;;;6.90;5.78;;;20.80;81.00;;;;;;4812883;29;20041;-67
2023/06/18 05:36:44;;;;;;;7.25;6.28;;;20.80;81.00;;;;;;4817884;29;21565;-67
2023/06/18 05:39:11;;;;;;;6.10;5.50;;;20.80;81.00;;;;;;4819003;29;20046;-67
2023/06/18 05:41:38;;;;;;;6.15;5.55;;;20.80;81.00;;;;;;4834720;29;20037;-67
2023/06/18 05:44:06;;;;;;;8.48;6.07;;;20.90;81.00;;;;;;4823509;29;20448;-67
2023/06/18 05:46:33;;;;;;;7.88;5.57;;;21.00;81.10;;;;;;4823576;29;20056;-67
2023/06/18 05:48:59;;;;;;;7.50;6.50;;;21.10;80.90;;;;;;4835929;29;21182;-67
2023/06/18 05:51:28;;;;;;;8.38;7.10;;;21.30;80.70;;;;;;4833442;29;20037;-66
2023/06/18 05:53:54;;;;;;;7.97;6.32;;;21.40;80.50;;;;;;4814188;29;20543;-67
2023/06/18 05:56:21;;;;;;;7.00;5.80;;;21.40;80.30;;;;;;4828591;29;20056;-67
2023/06/18 05:58:48;;;;;;;9.40;5.93;;;21.50;80.10;;;;;;4820014;29;20044;-67
2023/06/18 06:01:15;;;;;;;6.50;5.90;;;21.50;80.00;;;;;;4837888;29;20040;-67
2023/06/18 06:03:41;;;;;;;6.70;6.03;;;21.80;80.00;;;;;;4823520;29;20478;-66
2023/06/18 06:06:08;;;;;;;8.77;6.45;;;22.00;79.50;;;;;;4834057;29;20037;-66
2023/06/18 06:08:35;;;;;;;7.00;5.80;;;22.30;79.10;;;;;;4832673;29;20262;-66
2023/06/18 06:11:04;;;;;;;7.53;5.65;;;22.60;78.40;;;;;;4815381;29;20052;-67
2023/06/18 06:13:32;;;;;;;8.45;6.68;;;22.80;77.90;;;;;;4800057;29;20480;-67
2023/06/18 06:16:05;;;;;;;6.95;6.35;;;22.90;77.50;;;;;;4828836;29;20037;-66
2023/06/18 06:18:31;;;;;;;6.45;5.82;;;23.10;77.10;;;;;;4817165;29;20042;-67
2023/06/18 06:20:59;;;;;;;8.77;6.90;;;23.30;76.80;;;;;;4841792;29;20376;-67
2023/06/18 06:23:26;;;;;;;9.75;7.70;;;23.60;76.40;;;;;;4813210;29;20045;-67
2023/06/18 06:25:52;;;;;;;7.65;6.82;;;23.90;75.50;;;;;;4833556;29;20033;-67
2023/06/18 06:28:18;;;;;;;7.70;6.90;;;24.10;74.60;;;;;;4820323;29;20034;-67
2023/06/18 06:30:45;;;;;;;6.70;5.95;;;24.30;74.00;;;;;;4836105;29;20040;-67
2023/06/18 06:33:12;;;;;;;7.55;6.75;;;24.50;73.60;;;;;;4833782;29;21083;-67
2023/06/18 06:35:39;;;;;;;9.27;8.38;;;24.60;73.10;;;;;;4830963;29;20412;-67
2023/06/18 06:38:08;;;;;;;10.10;8.32;;;24.80;72.90;;;;;;4840351;29;20033;-67
2023/06/18 06:40:34;;;;;;;7.90;7.10;;;24.90;72.10;;;;;;4847481;29;20037;-67
2023/06/18 06:43:00;;;;;;;8.75;7.75;;;24.90;71.90;;;;;;4829160;29;20053;-67
2023/06/18 06:45:47;;;;;;;7.57;6.70;;;25.00;71.50;;;;;;4833690;29;20045;-66
2023/06/18 06:48:19;;;;;;;;;;;25.20;71.50;;;;;;4836566;29;20036;-68
2023/06/18 06:50:58;;;;;;;8.27;6.85;;;25.40;71.10;;;;;;4834157;29;19920;-67
2023/06/18 06:53:32;;;;;;;9.55;7.30;;;25.60;70.60;;;;;;4817344;29;20059;-67
2023/06/18 06:55:58;;;;;;;8.98;7.88;;;25.70;69.80;;;;;;4836653;29;20057;-72
2023/06/18 06:58:26;;;;;;;10.00;7.80;;;25.80;69.30;;;;;;4830010;29;20440;-66
2023/06/18 07:00:52;;;;;;;12.77;11.38;;;26.00;68.60;;;;;;4844421;29;20776;-67
2023/06/18 07:03:18;;;;;;;9.73;7.93;;;26.10;68.00;;;;;;4835671;29;20053;-67
2023/06/18 07:05:45;;;;;;;8.88;7.40;;;26.20;67.20;;;;;;4832070;29;20056;-67
2023/06/18 07:08:11;;;;;;;7.97;7.18;;;26.30;67.00;;;;;;4836971;29;20029;-67
2023/06/18 07:10:37;;;;;;;7.43;6.47;;;26.30;66.30;;;;;;4821946;29;21412;-67
2023/06/18 07:13:04;;;;;;;6.88;5.63;;;26.40;66.00;;;;;;4834708;29;20041;-67
2023/06/18 07:15:31;;;;;;;9.45;7.10;;;26.40;66.00;;;;;;4835140;29;20041;-67
2023/06/18 07:17:57;;;;;;;7.63;6.05;;;26.50;65.60;;;;;;4845999;29;20746;-67
2023/06/18 07:20:24;;;;;;;10.45;7.18;;;26.50;65.60;;;;;;4840251;29;20041;-67
2023/06/18 07:22:50;;;;;;;7.85;6.95;;;26.70;65.60;;;;;;4832902;29;20072;-67
2023/06/18 07:25:16;;;;;;;7.95;7.15;;;26.80;65.30;;;;;;4825054;29;20037;-67
2023/06/18 07:27:42;;;;;;;8.23;7.43;;;27.00;64.50;;;;;;4831910;29;20661;-66
2023/06/18 07:30:09;;;;;;;7.65;6.43;;;27.10;64.00;;;;;;4832273;29;20040;-67
2023/06/18 07:32:35;;;;;;;6.93;6.22;;;27.20;63.90;;;;;;4833809;29;20048;-67
2023/06/18 07:35:02;;;;;;;7.20;6.50;;;27.30;63.70;;;;;;4801235;29;20063;-66
2023/06/18 07:37:28;;;;;;;8.45;6.63;;;27.50;63.50;;;;;;4842956;29;20037;-67
2023/06/18 07:39:55;;;;;;;6.25;5.32;;;27.50;63.40;;;;;;4838618;29;20048;-67
2023/06/18 07:42:21;;;;;;;21.95;19.63;;;27.70;63.20;;;;;;4815676;29;20036;-67
2023/06/18 07:44:49;;;;;;;13.25;11.63;;;27.70;62.50;;;;;;4824115;29;20059;-67
2023/06/18 07:47:15;;;;;;;11.48;8.18;;;27.80;62.10;;;;;;4831814;29;20062;-67
2023/06/18 07:49:41;;;;;;;7.75;6.32;;;27.70;61.60;;;;;;4801085;29;20052;-67
2023/06/18 07:52:08;;;;;;;10.48;8.15;;;27.70;62.20;;;;;;4834029;29;20063;-67
2023/06/18 07:54:35;;;;;;;8.43;7.63;;;27.80;62.40;;;;;;4836529;29;21476;-67
2023/06/18 07:57:02;;;;;;;7.90;6.10;;;28.00;62.20;;;;;;4839230;29;20030;-67
2023/06/18 07:59:28;;;;;;;7.40;6.60;;;28.20;62.10;;;;;;4834421;29;20056;-67
2023/06/18 08:01:54;;;;;;;8.50;7.70;;;28.40;61.90;;;;;;4829150;29;20709;-67
2023/06/18 08:04:21;;;;;;;9.60;8.68;;;28.60;61.30;;;;;;4824207;29;21224;-66
2023/06/18 08:06:48;;;;;;;10.60;9.05;;;28.70;61.60;;;;;;4828113;29;20037;-67
2023/06/18 08:09:15;;;;;;;6.95;6.30;;;28.80;61.40;;;;;;4832824;29;20044;-73
2023/06/18 08:11:42;;;;;;;6.72;5.60;;;28.80;60.90;;;;;;4823144;29;20041;-67
2023/06/18 08:14:08;;;;;;;6.63;5.30;;;28.90;60.80;;;;;;4824011;29;20610;-67
2023/06/18 08:16:34;;;;;;;5.22;4.28;;;28.90;60.60;;;;;;4837493;29;20047;-66
2023/06/18 08:19:01;;;;;;;5.05;4.40;;;28.80;60.00;;;;;;4815206;29;20400;-67
2023/06/18 08:21:27;;;;;;;6.25;4.38;;;28.70;60.00;;;;;;4804991;29;20060;-67
2023/06/18 08:23:53;;;;;;;7.13;6.43;;;28.60;59.90;;;;;;4813824;29;20382;-67
2023/06/18 08:26:22;;;;;;;5.60;5.00;;;28.60;59.80;;;;;;4827437;29;20045;-67
2023/06/18 08:28:49;;;;;;;6.57;5.63;;;28.50;59.20;;;;;;4818108;29;20041;-67
2023/06/18 08:31:16;;;;;;;5.57;4.78;;;28.50;59.70;;;;;;4826602;29;20041;-66
2023/06/18 08:33:43;;;;;;;5.13;4.63;;;28.50;59.90;;;;;;4839118;29;20561;-67
2023/06/18 08:36:09;;;;;;;5.22;4.70;;;28.60;59.80;;;;;;4830041;29;20404;-67
2023/06/18 08:38:36;;;;;;;7.05;6.35;;;28.70;59.40;;;;;;4829573;29;20508;-67
2023/06/18 08:41:02;;;;;;;7.10;6.40;;;28.80;59.10;;;;;;4833577;29;20048;-67
2023/06/18 08:43:32;;;;;;;44.35;39.88;;;29.00;58.70;;;;;;4829756;29;20041;-67
2023/06/18 08:46:08;;;;;;;14.55;13.05;;;29.00;57.90;;;;;;4827881;29;20060;-66
2023/06/18 08:48:39;;;;;;;7.85;7.13;;;29.20;57.50;;;;;;4838042;29;20037;-67
2023/06/18 08:51:09;;;;;;;7.45;6.72;;;29.20;57.20;;;;;;4841047;29;20036;-67
2023/06/18 08:54:07;;;;;;;6.22;5.63;;;29.40;56.90;;;;;;4833671;29;20781;-67
2023/06/18 08:56:41;;;;;;;5.70;5.15;;;29.60;56.20;;;;;;4829403;29;20432;-66
2023/06/18 08:59:08;;;;;;;5.05;4.55;;;29.60;55.90;;;;;;4829622;29;20041;-67
2023/06/18 09:01:35;;;;;;;6.22;4.57;;;29.70;55.60;;;;;;4817524;29;20041;-67
2023/06/18 09:04:02;;;;;;;7.63;5.22;;;29.80;55.60;;;;;;4826150;29;20041;-67
2023/06/18 09:06:29;;;;;;;7.18;4.85;;;29.90;55.40;;;;;;4832749;29;20058;-67
2023/06/18 09:08:59;;;;;;;7.85;6.53;;;30.00;55.50;;;;;;4825762;29;20045;-67
2023/06/18 09:11:26;;;;;;;6.57;6.00;;;30.20;55.30;;;;;;4836086;29;20676;-67
2023/06/18 09:13:53;;;;;;;9.38;8.07;;;30.30;55.10;;;;;;4827890;29;20078;-68
2023/06/18 09:16:19;;;;;;;7.25;6.57;;;30.50;54.60;;;;;;4828029;29;20563;-67
2023/06/18 09:18:46;;;;;;;6.40;5.20;;;30.70;53.20;;;;;;4830580;29;20041;-67
2023/06/18 09:21:38;;;;;;;4.97;4.43;;;30.80;52.50;;;;;;4830846;29;20045;-67
2023/06/18 09:24:08;;;;;;;;;;;31.00;53.00;;;;;;4846108;29;21181;-67
2023/06/18 09:26:35;;;;;;;11.60;9.48;;;31.10;52.60;;;;;;4839422;29;19924;-73
2023/06/18 09:29:06;;;;;;;17.23;15.57;;;31.30;52.50;;;;;;4812465;29;20056;-69
2023/06/18 09:31:33;;;;;;;8.00;7.10;;;31.50;52.50;;;;;;4832823;29;20037;-69
2023/06/18 09:34:17;;;;;;;6.13;5.53;;;31.70;52.10;;;;;;4826791;29;20052;-69
2023/06/18 09:36:49;;;;;;;6.85;6.18;;;31.90;53.00;;;;;;4814423;29;20536;-70
2023/06/18 09:39:24;;;;;;;5.32;4.82;;;31.90;52.10;;;;;;4815658;29;20071;-70
2023/06/18 09:41:54;;;;;;;6.28;5.03;;;32.10;51.80;;;;;;4815982;29;20385;-70
2023/06/18 09:44:22;;;;;;;5.25;4.60;;;32.10;51.90;;;;;;4834706;29;20037;-68
2023/06/18 09:46:54;;;;;;;5.45;4.55;;;32.10;52.20;;;;;;4840323;29;20176;-69
2023/06/18 09:49:21;;;;;;;8.75;6.10;;;32.00;51.60;;;;;;4836276;29;20942;-69
2023/06/18 09:51:52;;;;;;;6.15;4.80;;;31.90;51.30;;;;;;4815447;29;20053;-69
2023/06/18 09:54:19;;;;;;;6.43;5.13;;;31.90;51.90;;;;;;4809932;29;20056;-69
2023/06/18 09:56:59;;;;;;;4.65;4.25;;;31.90;51.50;;;;;;4813109;29;20034;-69
2023/06/18 09:59:26;;;;;;;4.95;4.45;;;32.00;51.80;;;;;;4832039;29;20132;-69
2023/06/18 10:01:54;;;;;;;10.93;9.60;;;32.00;51.60;;;;;;4821435;29;20033;-69
2023/06/18 10:04:22;;;;;;;7.03;6.43;;;32.00;51.00;;;;;;4837479;29;21237;-70
2023/06/18 10:06:59;;;;;;;6.00;5.50;;;32.10;50.90;;;;;;4809201;29;20051;-69
2023/06/18 10:09:32;;;;;;;5.40;4.03;;;32.10;50.40;;;;;;4830612;29;20044;-70
2023/06/18 10:12:01;;;;;;;4.32;3.90;;;32.10;50.50;;;;;;4830770;29;20064;-71
2023/06/18 10:14:28;;;;;;;4.30;3.90;;;32.30;50.60;;;;;;4830181;29;20393;-71
2023/06/18 10:17:04;;;;;;;9.73;8.80;;;32.40;50.30;;;;;;4816070;29;20033;-71
2023/06/18 10:19:36;;;;;;;9.07;8.18;;;32.50;50.60;;;;;;4835559;29;20041;-70
2023/06/18 10:22:03;;;;;;;12.02;10.82;;;32.50;50.00;;;;;;4844477;29;20029;-70
2023/06/18 10:24:50;;;;;;;23.00;20.65;;;32.50;50.00;;;;;;4839148;29;20033;-78
2023/06/18 10:27:17;;;;;;;31.88;28.67;;;32.60;49.50;;;;;;4833567;29;20053;-70
2023/06/18 10:29:44;;;;;;;24.30;21.95;;;32.50;49.60;;;;;;4834161;29;20625;-71
2023/06/18 10:32:11;;;;;;;21.92;19.63;;;32.50;49.10;;;;;;4833748;29;20401;-72
2023/06/18 10:34:39;;;;;;;19.52;16.60;;;32.50;49.60;;;;;;4826754;29;20061;-76
2023/06/18 10:37:07;;;;;;;16.73;14.93;;;32.50;49.10;;;;;;4832862;29;20041;-70
2023/06/18 10:39:34;;;;;;;18.33;15.60;;;32.40;48.90;;;;;;4840759;29;20424;-72
2023/06/18 10:42:14;;;;;;;19.13;15.02;;;32.40;49.40;;;;;;4843156;29;20044;-72
2023/06/18 10:44:52;;;;;;;15.60;12.27;;;32.50;49.30;;;;;;4832808;29;20056;-70
2023/06/18 10:47:22;;;;;;;19.20;14.52;;;32.40;49.00;;;;;;4829552;29;20041;-71
2023/06/18 10:50:07;;;;;;;29.77;22.27;;;32.30;49.60;;;;;;4829787;29;20052;-71
2023/06/18 10:52:38;;;;;;;31.17;23.10;;;32.30;49.90;;;;;;4828832;29;20052;-72
2023/06/18 10:55:05;;;;;;;26.65;19.55;;;32.20;49.70;;;;;;4808337;29;20072;-71
2023/06/18 10:57:31;;;;;;;19.50;14.35;;;32.10;49.90;;;;;;4833232;29;20040;-71
2023/06/18 10:59:57;;;;;;;14.02;10.00;;;32.00;49.80;;;;;;4826346;29;20041;-72
2023/06/18 11:02:35;;;;;;;10.50;7.85;;;31.90;49.90;;;;;;4841032;29;20041;-71
2023/06/18 11:05:01;;;;;;;16.33;12.52;;;31.90;50.10;;;;;;4811260;29;20063;-71
2023/06/18 11:07:27;;;;;;;15.85;12.25;;;31.80;50.20;;;;;;4828761;29;20179;-71
2023/06/18 11:09:58;;;;;;;12.32;9.70;;;31.60;50.20;;;;;;4832242;29;20041;-71
2023/06/18 11:12:30;;;;;;;10.90;7.88;;;31.40;50.50;;;;;;4832981;29;20045;-71
2023/06/18 11:15:16;;;;;;;7.03;6.30;;;31.40;50.60;;;;;;4828820;29;20044;-71
2023/06/18 11:17:50;;;;;;;7.20;5.55;;;31.30;50.90;;;;;;4842423;29;20409;-72
2023/06/18 11:20:18;;;;;;;5.65;5.05;;;31.10;50.80;;;;;;4843734;29;20045;-71
2023/06/18 11:22:45;;;;;;;6.32;5.07;;;31.00;51.00;;;;;;4818831;29;20873;-70
2023/06/18 11:25:13;;;;;;;6.00;4.93;;;31.00;51.40;;;;;;4826486;29;20477;-71
2023/06/18 11:27:41;;;;;;;6.25;4.45;;;30.90;51.30;;;;;;4833502;29;20040;-71
2023/06/18 11:30:10;;;;;;;4.95;4.45;;;30.90;51.40;;;;;;4832411;29;20037;-71
2023/06/18 11:32:37;;;;;;;3.80;3.38;;;30.80;51.40;;;;;;4832805;29;20438;-72
2023/06/18 11:35:06;;;;;;;4.40;4.00;;;30.60;51.40;;;;;;4834599;29;20048;-71
2023/06/18 11:37:32;;;;;;;6.13;5.07;;;30.50;51.40;;;;;;4843852;29;20037;-71
2023/06/18 11:39:59;;;;;;;8.32;5.47;;;30.30;51.50;;;;;;4821548;29;20048;-71
2023/06/18 11:42:26;;;;;;;7.18;5.28;;;30.20;51.90;;;;;;4832708;29;20045;-71
2023/06/18 11:45:01;;;;;;;6.45;5.03;;;30.00;52.00;;;;;;4824495;29;20551;-71
2023/06/18 11:47:29;;;;;;;5.55;4.40;;;29.90;52.80;;;;;;4818209;29;20052;-71
2023/06/18 11:49:57;;;;;;;5.43;4.38;;;29.80;53.00;;;;;;4818279;29;20041;-72
2023/06/18 11:52:26;;;;;;;4.57;4.15;;;29.70;53.20;;;;;;4834481;29;20505;-72
2023/06/18 11:54:53;;;;;;;4.53;3.85;;;29.60;53.20;;;;;;4836104;29;20053;-70
2023/06/18 11:57:22;;;;;;;5.30;4.30;;;29.50;53.00;;;;;;4843821;29;20033;-72
2023/06/18 11:59:51;;;;;;;4.65;3.53;;;29.50;53.30;;;;;;4834350;29;20542;-71
2023/06/18 12:02:19;;;;;;;4.50;3.90;;;29.40;53.70;;;;;;4815842;29;20064;-70
2023/06/18 12:04:46;;;;;;;4.38;3.83;;;29.50;54.20;;;;;;4809034;29;20056;-73
2023/06/18 12:07:16;;;;;;;4.75;3.72;;;29.50;54.60;;;;;;4817074;29;21683;-71
2023/06/18 12:09:44;;;;;;;9.20;6.50;;;29.50;54.60;;;;;;4831346;29;20079;-69
2023/06/18 12:12:48;;;;;;;21.13;14.30;;;29.50;54.50;;;;;;4836481;29;20037;-69
2023/06/18 12:15:39;;;;;;;18.48;11.55;;;29.60;54.40;;;;;;4836595;29;20025;-70
2023/06/18 12:18:12;;;;;;;15.40;10.38;;;29.60;54.90;;;;;;4837701;29;20044;-70
2023/06/18 12:20:39;;;;;;;14.95;8.57;;;29.60;55.10;;;;;;4836756;29;20484;-70
2023/06/18 12:23:05;;;;;;;25.17;22.67;;;29.80;55.40;;;;;;4849163;29;20377;-70
2023/06/18 12:25:32;;;;;;;22.25;16.00;;;29.90;55.60;;;;;;4796843;29;20041;-72
2023/06/18 12:28:02;;;;;;;22.25;16.30;;;30.10;55.20;;;;;;4802744;29;20555;-69
2023/06/18 12:30:30;;;;;;;21.63;14.75;;;30.10;54.60;;;;;;4842354;29;20048;-69
2023/06/18 12:33:05;;;;;;;12.93;9.45;;;30.10;54.20;;;;;;4842328;29;20401;-71
2023/06/18 12:35:34;;;;;;;9.50;7.10;;;30.10;53.90;;;;;;4835581;29;20037;-71
2023/06/18 12:38:06;;;;;;;12.18;8.43;;;30.00;53.90;;;;;;4833401;29;20029;-71
2023/06/18 12:40:35;;;;;;;15.20;9.70;;;30.00;54.60;;;;;;4834658;29;20041;-69
2023/06/18 12:43:08;;;;;;;13.55;11.05;;;29.90;54.30;;;;;;4835022;29;20052;-71
2023/06/18 12:45:34;;;;;;;8.25;6.78;;;29.80;54.10;;;;;;4812670;29;20060;-69
2023/06/18 12:48:20;;;;;;;8.15;5.55;;;29.80;53.70;;;;;;4839249;29;20033;-69
2023/06/18 12:50:48;;;;;;;6.07;5.10;;;29.70;53.50;;;;;;4845995;29;20037;-72
2023/06/18 12:53:24;;;;;;;5.47;4.13;;;29.60;53.50;;;;;;4825322;29;20060;-70